DOD1031 KNZY-KLSV
Flight info
| Callsign | DOD1031 |
|---|---|
| Flight time | 0h 48m |
| Altitude | 23000 |
| Route | JLI V514 GFS KONNG/N0412F160 |
| Aircraft | C700/M-SBDGHM1RWXY/LB2 |
Departure
| Time | 2026-05-06 21:33 |
|---|---|
| Airport | North Island Naval Air Station-Halsey Field (KNZY) |
Arrival
| Time | 2026-05-06 22:21 |
|---|---|
| Airport | Nellis Air Force Base (KLSV) |
| Time | Latitude | Longitude | Altitude | Speed | Heading |
|---|---|---|---|---|---|
| 2026-05-06 21:17 | 32.69932 | -117.20832 | 28 ft | 0 kts | 121° |
| 2026-05-06 21:28 | 32.69930 | -117.20827 | 28 ft | 3 kts | 121° |
| 2026-05-06 21:29 | 32.69904 | -117.20804 | 29 ft | 5 kts | 186° |
| 2026-05-06 21:29 | 32.69849 | -117.20834 | 28 ft | 12 kts | 187° |
| 2026-05-06 21:29 | 32.69749 | -117.20841 | 27 ft | 16 kts | 213° |
| 2026-05-06 21:29 | 32.69659 | -117.20790 | 30 ft | 18 kts | 118° |
| 2026-05-06 21:30 | 32.69614 | -117.20708 | 25 ft | 8 kts | 118° |
| 2026-05-06 21:30 | 32.69579 | -117.20641 | 26 ft | 11 kts | 121° |
| 2026-05-06 21:30 | 32.69534 | -117.20554 | 28 ft | 14 kts | 121° |
| 2026-05-06 21:30 | 32.69473 | -117.20444 | 24 ft | 18 kts | 123° |
| 2026-05-06 21:31 | 32.69401 | -117.20303 | 30 ft | 21 kts | 122° |
| 2026-05-06 21:31 | 32.69331 | -117.20181 | 27 ft | 12 kts | 122° |
| 2026-05-06 21:31 | 32.69283 | -117.20089 | 28 ft | 14 kts | 121° |
| 2026-05-06 21:31 | 32.69270 | -117.20070 | 29 ft | 0 kts | 141° |
| 2026-05-06 21:32 | 32.69212 | -117.20044 | 31 ft | 13 kts | 185° |
| 2026-05-06 21:32 | 32.69170 | -117.20130 | 28 ft | 15 kts | 284° |
| 2026-05-06 21:33 | 32.69223 | -117.20226 | 25 ft | 47 kts | 304° |
| 2026-05-06 21:33 | 32.69578 | -117.20890 | 51 ft | 138 kts | 302° |
| 2026-05-06 21:33 | 32.70192 | -117.21997 | 781 ft | 176 kts | 302° |
| 2026-05-06 21:33 | 32.70914 | -117.23304 | 1836 ft | 209 kts | 302° |
| 2026-05-06 21:34 | 32.71658 | -117.24860 | 2906 ft | 231 kts | 301° |
| 2026-05-06 21:34 | 32.72471 | -117.26535 | 3571 ft | 228 kts | 303° |
| 2026-05-06 21:34 | 32.73248 | -117.28181 | 4288 ft | 229 kts | 301° |
| 2026-05-06 21:34 | 32.73941 | -117.29906 | 5024 ft | 239 kts | 293° |
| 2026-05-06 21:35 | 32.74076 | -117.31946 | 5758 ft | 256 kts | 260° |
| 2026-05-06 21:35 | 32.73252 | -117.33778 | 6494 ft | 256 kts | 227° |
| 2026-05-06 21:35 | 32.71727 | -117.34815 | 7207 ft | 257 kts | 191° |
| 2026-05-06 21:35 | 32.69960 | -117.34693 | 7937 ft | 256 kts | 158° |
| 2026-05-06 21:36 | 32.68560 | -117.33492 | 8681 ft | 251 kts | 124° |
| 2026-05-06 21:36 | 32.67951 | -117.31617 | 9445 ft | 245 kts | 90° |
| 2026-05-06 21:36 | 32.68331 | -117.29689 | 10216 ft | 242 kts | 56° |
| 2026-05-06 21:36 | 32.69574 | -117.28372 | 10969 ft | 243 kts | 24° |
| 2026-05-06 21:37 | 32.71230 | -117.28080 | 11710 ft | 245 kts | 3° |
| 2026-05-06 21:37 | 32.72933 | -117.27634 | 12059 ft | 255 kts | 17° |
| 2026-05-06 21:37 | 32.74557 | -117.26994 | 12628 ft | 240 kts | 28° |
| 2026-05-06 21:37 | 32.75686 | -117.25519 | 13379 ft | 250 kts | 59° |
| 2026-05-06 21:38 | 32.76451 | -117.23626 | 14165 ft | 257 kts | 61° |
| 2026-05-06 21:38 | 32.77343 | -117.21764 | 14890 ft | 259 kts | 54° |
| 2026-05-06 21:38 | 32.78409 | -117.19975 | 15003 ft | 273 kts | 51° |
| 2026-05-06 21:38 | 32.79528 | -117.18159 | 14998 ft | 268 kts | 53° |
| 2026-05-06 21:39 | 32.80516 | -117.16454 | 15682 ft | 240 kts | 53° |
| 2026-05-06 21:39 | 32.81486 | -117.14777 | 16412 ft | 257 kts | 53° |
| 2026-05-06 21:39 | 32.82560 | -117.12948 | 17200 ft | 280 kts | 53° |
| 2026-05-06 21:39 | 32.83704 | -117.10992 | 18002 ft | 301 kts | 54° |
| 2026-05-06 21:40 | 32.84919 | -117.08903 | 18759 ft | 308 kts | 54° |
| 2026-05-06 21:40 | 32.86137 | -117.06806 | 19461 ft | 308 kts | 54° |
| 2026-05-06 21:40 | 32.87354 | -117.04718 | 20165 ft | 309 kts | 53° |
| 2026-05-06 21:40 | 32.88171 | -117.03316 | 20650 ft | 311 kts | 53° |
| 2026-05-06 21:41 | 32.89415 | -117.01178 | 21401 ft | 314 kts | 53° |
| 2026-05-06 21:41 | 32.90667 | -116.99024 | 22161 ft | 317 kts | 53° |
| 2026-05-06 21:41 | 32.91917 | -116.96873 | 22916 ft | 322 kts | 53° |
| 2026-05-06 21:41 | 32.93235 | -116.94609 | 22979 ft | 338 kts | 53° |
| 2026-05-06 21:42 | 32.94556 | -116.92331 | 22981 ft | 331 kts | 53° |
| 2026-05-06 21:42 | 32.95855 | -116.90086 | 22974 ft | 324 kts | 53° |
| 2026-05-06 21:42 | 32.97131 | -116.87885 | 22969 ft | 323 kts | 53° |
| 2026-05-06 21:42 | 32.98444 | -116.85630 | 22992 ft | 346 kts | 53° |
| 2026-05-06 21:43 | 32.99883 | -116.83148 | 22993 ft | 378 kts | 54° |
| 2026-05-06 21:43 | 33.01401 | -116.80521 | 22991 ft | 395 kts | 54° |
| 2026-05-06 21:43 | 33.02964 | -116.77811 | 22989 ft | 394 kts | 54° |
| 2026-05-06 21:43 | 33.04515 | -116.75127 | 22983 ft | 391 kts | 54° |
| 2026-05-06 21:44 | 33.06045 | -116.72483 | 22945 ft | 397 kts | 54° |
| 2026-05-06 21:44 | 33.07661 | -116.69686 | 22957 ft | 417 kts | 54° |
| 2026-05-06 21:44 | 33.09321 | -116.66805 | 23044 ft | 420 kts | 54° |
| 2026-05-06 21:44 | 33.10956 | -116.63962 | 23045 ft | 419 kts | 54° |
| 2026-05-06 21:45 | 33.12623 | -116.61114 | 23029 ft | 416 kts | 52° |
| 2026-05-06 21:45 | 33.14537 | -116.58525 | 23048 ft | 414 kts | 44° |
| 2026-05-06 21:45 | 33.16728 | -116.56266 | 23066 ft | 416 kts | 37° |
| 2026-05-06 21:45 | 33.19062 | -116.54261 | 23052 ft | 415 kts | 36° |
| 2026-05-06 21:46 | 33.21380 | -116.52240 | 23053 ft | 414 kts | 37° |
| 2026-05-06 21:46 | 33.23717 | -116.50193 | 23043 ft | 414 kts | 36° |
| 2026-05-06 21:46 | 33.26036 | -116.48179 | 23040 ft | 414 kts | 36° |
| 2026-05-06 21:46 | 33.28385 | -116.46146 | 23024 ft | 416 kts | 36° |
| 2026-05-06 21:47 | 33.30736 | -116.44097 | 23018 ft | 420 kts | 36° |
| 2026-05-06 21:47 | 33.33069 | -116.42058 | 23024 ft | 420 kts | 36° |
| 2026-05-06 21:47 | 33.35434 | -116.39996 | 23018 ft | 419 kts | 36° |
| 2026-05-06 21:47 | 33.37791 | -116.37944 | 23020 ft | 418 kts | 36° |
| 2026-05-06 21:48 | 33.40143 | -116.35890 | 23012 ft | 418 kts | 36° |
| 2026-05-06 21:48 | 33.42497 | -116.33831 | 23010 ft | 417 kts | 36° |
| 2026-05-06 21:48 | 33.44826 | -116.31794 | 23005 ft | 417 kts | 36° |
| 2026-05-06 21:48 | 33.47169 | -116.29744 | 23006 ft | 417 kts | 36° |
| 2026-05-06 21:49 | 33.49503 | -116.27700 | 23008 ft | 418 kts | 36° |
| 2026-05-06 21:49 | 33.51861 | -116.25638 | 23024 ft | 418 kts | 36° |
| 2026-05-06 21:49 | 33.54192 | -116.23597 | 22992 ft | 417 kts | 37° |
| 2026-05-06 21:49 | 33.56536 | -116.21528 | 22991 ft | 415 kts | 37° |
| 2026-05-06 21:50 | 33.58849 | -116.19495 | 22973 ft | 415 kts | 36° |
| 2026-05-06 21:50 | 33.61201 | -116.17436 | 22987 ft | 419 kts | 36° |
| 2026-05-06 21:50 | 33.63584 | -116.15388 | 22978 ft | 421 kts | 34° |
| 2026-05-06 21:50 | 33.66036 | -116.13430 | 22989 ft | 421 kts | 34° |
| 2026-05-06 21:51 | 33.68450 | -116.11512 | 22974 ft | 420 kts | 34° |
| 2026-05-06 21:51 | 33.70897 | -116.09546 | 22981 ft | 419 kts | 34° |
| 2026-05-06 21:51 | 33.73298 | -116.07610 | 22980 ft | 419 kts | 34° |
| 2026-05-06 21:51 | 33.75729 | -116.05654 | 23000 ft | 418 kts | 34° |
| 2026-05-06 21:52 | 33.78127 | -116.03730 | 23006 ft | 418 kts | 34° |
| 2026-05-06 21:52 | 33.80554 | -116.01788 | 23008 ft | 419 kts | 34° |
| 2026-05-06 21:52 | 33.82964 | -115.99846 | 23006 ft | 420 kts | 34° |
| 2026-05-06 21:52 | 33.85409 | -115.97871 | 23013 ft | 420 kts | 34° |
| 2026-05-06 21:53 | 33.87829 | -115.95917 | 23018 ft | 420 kts | 34° |
| 2026-05-06 21:53 | 33.90237 | -115.93977 | 23016 ft | 420 kts | 34° |
| 2026-05-06 21:53 | 33.92682 | -115.92005 | 23018 ft | 421 kts | 34° |
| 2026-05-06 21:53 | 33.95118 | -115.90036 | 23017 ft | 422 kts | 34° |
| 2026-05-06 21:54 | 33.97552 | -115.88068 | 23375 ft | 415 kts | 34° |
| 2026-05-06 21:54 | 33.99880 | -115.86186 | 25153 ft | 387 kts | 34° |
| 2026-05-06 21:54 | 34.02023 | -115.84453 | 27242 ft | 358 kts | 35° |
| 2026-05-06 21:54 | 34.04036 | -115.82825 | 28836 ft | 350 kts | 35° |
| 2026-05-06 21:55 | 34.06125 | -115.81125 | 29011 ft | 373 kts | 35° |
| 2026-05-06 21:55 | 34.08334 | -115.79330 | 29024 ft | 398 kts | 35° |
| 2026-05-06 21:55 | 34.10691 | -115.77388 | 29029 ft | 422 kts | 37° |
| 2026-05-06 21:55 | 34.12986 | -115.75021 | 29023 ft | 442 kts | 43° |
| 2026-05-06 21:56 | 34.17541 | -115.69897 | 29012 ft | 447 kts | 43° |
| 2026-05-06 21:56 | 34.22070 | -115.64813 | 29007 ft | 445 kts | 43° |
| 2026-05-06 21:57 | 34.26607 | -115.59698 | 29001 ft | 446 kts | 43° |
| 2026-05-06 21:57 | 34.31301 | -115.54759 | 28995 ft | 446 kts | 36° |
| 2026-05-06 21:58 | 34.36741 | -115.51165 | 28976 ft | 450 kts | 24° |
| 2026-05-06 21:58 | 34.42645 | -115.48594 | 28980 ft | 450 kts | 22° |
| 2026-05-06 21:59 | 34.48506 | -115.46027 | 28977 ft | 450 kts | 21° |
| 2026-05-06 21:59 | 34.54429 | -115.43453 | 28978 ft | 451 kts | 21° |
| 2026-05-06 22:00 | 34.60331 | -115.40871 | 28986 ft | 451 kts | 21° |
| 2026-05-06 22:00 | 34.66210 | -115.38303 | 28987 ft | 448 kts | 22° |
| 2026-05-06 22:01 | 34.72047 | -115.35744 | 28979 ft | 448 kts | 21° |
| 2026-05-06 22:01 | 34.77978 | -115.33143 | 29000 ft | 453 kts | 21° |
| 2026-05-06 22:02 | 34.83915 | -115.30535 | 29009 ft | 453 kts | 21° |
| 2026-05-06 22:02 | 34.89828 | -115.27932 | 29017 ft | 453 kts | 21° |
| 2026-05-06 22:03 | 34.95746 | -115.25324 | 29006 ft | 453 kts | 21° |
| 2026-05-06 22:03 | 35.01684 | -115.22703 | 29006 ft | 451 kts | 21° |
| 2026-05-06 22:04 | 35.04606 | -115.21412 | 28734 ft | 446 kts | 21° |
| 2026-05-06 22:04 | 35.07467 | -115.20149 | 28003 ft | 425 kts | 21° |
| 2026-05-06 22:04 | 35.09922 | -115.19071 | 25434 ft | 351 kts | 21° |
| 2026-05-06 22:04 | 35.12072 | -115.18111 | 24751 ft | 316 kts | 21° |
| 2026-05-06 22:05 | 35.14166 | -115.16947 | 24321 ft | 350 kts | 30° |
| 2026-05-06 22:05 | 35.16393 | -115.15395 | 23896 ft | 382 kts | 30° |
| 2026-05-06 22:05 | 35.18762 | -115.13780 | 23448 ft | 397 kts | 29° |
| 2026-05-06 22:05 | 35.21072 | -115.12221 | 22886 ft | 342 kts | 29° |
| 2026-05-06 22:06 | 35.23129 | -115.10816 | 22344 ft | 345 kts | 29° |
| 2026-05-06 22:06 | 35.25202 | -115.09392 | 21835 ft | 341 kts | 29° |
| 2026-05-06 22:06 | 35.27244 | -115.07993 | 21322 ft | 329 kts | 29° |
| 2026-05-06 22:06 | 35.29197 | -115.06659 | 20826 ft | 318 kts | 29° |
| 2026-05-06 22:07 | 35.31109 | -115.05350 | 20326 ft | 310 kts | 29° |
| 2026-05-06 22:07 | 35.32979 | -115.04068 | 19833 ft | 305 kts | 29° |
| 2026-05-06 22:07 | 35.34811 | -115.02813 | 19365 ft | 304 kts | 29° |
| 2026-05-06 22:07 | 35.36658 | -115.01545 | 19029 ft | 299 kts | 29° |
| 2026-05-06 22:08 | 35.38436 | -115.00325 | 19011 ft | 292 kts | 29° |
| 2026-05-06 22:08 | 35.40232 | -114.99092 | 19019 ft | 302 kts | 29° |
| 2026-05-06 22:08 | 35.42100 | -114.97808 | 19023 ft | 310 kts | 29° |
| 2026-05-06 22:08 | 35.43997 | -114.96573 | 19020 ft | 311 kts | 24° |
| 2026-05-06 22:09 | 35.46056 | -114.95734 | 19017 ft | 310 kts | 14° |
| 2026-05-06 22:09 | 35.48194 | -114.95359 | 19015 ft | 310 kts | 5° |
| 2026-05-06 22:09 | 35.50347 | -114.95440 | 19016 ft | 309 kts | 357° |
| 2026-05-06 22:09 | 35.52469 | -114.95644 | 19019 ft | 309 kts | 358° |
| 2026-05-06 22:10 | 35.54616 | -114.95829 | 19017 ft | 309 kts | 358° |
| 2026-05-06 22:10 | 35.56776 | -114.96027 | 19017 ft | 310 kts | 356° |
| 2026-05-06 22:10 | 35.58895 | -114.96372 | 19018 ft | 311 kts | 354° |
| 2026-05-06 22:10 | 35.61048 | -114.96716 | 19012 ft | 308 kts | 356° |
| 2026-05-06 22:11 | 35.63175 | -114.96928 | 18375 ft | 307 kts | 358° |
| 2026-05-06 22:11 | 35.65259 | -114.97101 | 17871 ft | 301 kts | 358° |
| 2026-05-06 22:11 | 35.67336 | -114.97322 | 17344 ft | 299 kts | 356° |
| 2026-05-06 22:11 | 35.69413 | -114.97562 | 16826 ft | 298 kts | 357° |
| 2026-05-06 22:12 | 35.71475 | -114.97786 | 16322 ft | 298 kts | 357° |
| 2026-05-06 22:12 | 35.73555 | -114.98005 | 15825 ft | 298 kts | 357° |
| 2026-05-06 22:12 | 35.75606 | -114.98224 | 15341 ft | 297 kts | 357° |
| 2026-05-06 22:12 | 35.77636 | -114.98444 | 14852 ft | 294 kts | 357° |
| 2026-05-06 22:13 | 35.79681 | -114.98665 | 14377 ft | 291 kts | 358° |
| 2026-05-06 22:13 | 35.81668 | -114.98879 | 13913 ft | 288 kts | 358° |
| 2026-05-06 22:13 | 35.83661 | -114.99093 | 13353 ft | 286 kts | 358° |
| 2026-05-06 22:13 | 35.85658 | -114.99308 | 12709 ft | 286 kts | 357° |
| 2026-05-06 22:14 | 35.87626 | -114.99521 | 12106 ft | 283 kts | 357° |
| 2026-05-06 22:14 | 35.89584 | -114.99733 | 11491 ft | 281 kts | 356° |
| 2026-05-06 22:14 | 35.91517 | -114.99941 | 10894 ft | 279 kts | 356° |
| 2026-05-06 22:14 | 35.93456 | -115.00151 | 10331 ft | 278 kts | 356° |
| 2026-05-06 22:15 | 35.95374 | -115.00358 | 9728 ft | 275 kts | 356° |
| 2026-05-06 22:15 | 35.97278 | -115.00565 | 9087 ft | 273 kts | 355° |
| 2026-05-06 22:15 | 35.99158 | -115.00768 | 8461 ft | 272 kts | 355° |
| 2026-05-06 22:15 | 36.01033 | -115.00972 | 7848 ft | 272 kts | 355° |
| 2026-05-06 22:16 | 36.02931 | -115.01178 | 7238 ft | 273 kts | 355° |
| 2026-05-06 22:16 | 36.04811 | -115.01379 | 6624 ft | 274 kts | 355° |
| 2026-05-06 22:16 | 36.06704 | -115.01586 | 6075 ft | 272 kts | 355° |
| 2026-05-06 22:16 | 36.08547 | -115.01789 | 6032 ft | 256 kts | 355° |
| 2026-05-06 22:17 | 36.10290 | -115.01976 | 6025 ft | 244 kts | 355° |
| 2026-05-06 22:17 | 36.11904 | -115.02150 | 6023 ft | 227 kts | 355° |
| 2026-05-06 22:17 | 36.13437 | -115.02317 | 5960 ft | 214 kts | 355° |
| 2026-05-06 22:17 | 36.14902 | -115.02478 | 5965 ft | 207 kts | 355° |
| 2026-05-06 22:18 | 36.16337 | -115.02633 | 5880 ft | 214 kts | 356° |
| 2026-05-06 22:18 | 36.17891 | -115.02754 | 5432 ft | 224 kts | 359° |
| 2026-05-06 22:18 | 36.19424 | -115.02501 | 4927 ft | 224 kts | 19° |
| 2026-05-06 22:18 | 36.20746 | -115.01555 | 4368 ft | 209 kts | 40° |
| 2026-05-06 22:19 | 36.21813 | -115.00497 | 3998 ft | 191 kts | 37° |
| 2026-05-06 22:19 | 36.22821 | -114.99444 | 3543 ft | 189 kts | 44° |
| 2026-05-06 22:19 | 36.23785 | -114.98262 | 3306 ft | 195 kts | 46° |
| 2026-05-06 22:19 | 36.24732 | -114.97225 | 3192 ft | 178 kts | 27° |
| 2026-05-06 22:20 | 36.25935 | -114.97093 | 3158 ft | 178 kts | 345° |
| 2026-05-06 22:20 | 36.26969 | -114.97878 | 2922 ft | 176 kts | 312° |
| 2026-05-06 22:20 | 36.27387 | -114.99300 | 2624 ft | 196 kts | 253° |
| 2026-05-06 22:20 | 36.26434 | -115.00621 | 2418 ft | 213 kts | 217° |
| 2026-05-06 22:21 | 36.25402 | -115.01707 | 2201 ft | 169 kts | 222° |
| 2026-05-06 22:21 | 36.24621 | -115.02563 | 1884 ft | 136 kts | 221° |
| 2026-05-06 22:21 | 36.24033 | -115.03204 | 1853 ft | 68 kts | 221° |
| 2026-05-06 22:21 | 36.23877 | -115.03374 | 1848 ft | 24 kts | 221° |
| 2026-05-06 22:22 | 36.23747 | -115.03515 | 1847 ft | 26 kts | 221° |
| 2026-05-06 22:22 | 36.23606 | -115.03666 | 1848 ft | 28 kts | 221° |
| 2026-05-06 22:22 | 36.23494 | -115.03785 | 1845 ft | 19 kts | 221° |
| 2026-05-06 22:22 | 36.23448 | -115.03875 | 1845 ft | 11 kts | 278° |
| 2026-05-06 22:23 | 36.23497 | -115.03964 | 1844 ft | 15 kts | 311° |
| 2026-05-06 22:23 | 36.23490 | -115.04035 | 1842 ft | 14 kts | 236° |
| 2026-05-06 22:23 | 36.23521 | -115.04098 | 1842 ft | 12 kts | 312° |
| 2026-05-06 22:23 | 36.23567 | -115.04168 | 1843 ft | 4 kts | 283° |
| 2026-05-06 22:24 | 36.23534 | -115.04218 | 1842 ft | 11 kts | 221° |
| 2026-05-06 22:24 | 36.23532 | -115.04220 | 1842 ft | 0 kts | 221° |